Time;durP1;ratioP1;P1;durP2;ratioP2;P2;SDS_P1;SDS_P2;PMS_P1;PMS_P2;Temp;Humidity;BMP_temperature;BMP_pressure;BME280_temperature;BME280_humidity;BME280_pressure;Samples;Min_cycle;Max_cycle;Signal;HPM_P1;HPM_P2
2022/01/30 00:00:48;;;;;;;2.45;2.25;;;6.70;90.40;;;;;;5062909;28;20228;-77
2022/01/30 00:03:16;;;;;;;2.58;2.38;;;6.70;90.20;;;;;;5067563;28;20289;-78
2022/01/30 00:05:43;;;;;;;3.17;2.60;;;6.60;90.10;;;;;;5067915;28;20202;-78
2022/01/30 00:08:11;;;;;;;2.53;2.10;;;6.60;90.30;;;;;;5051695;28;20187;-78
2022/01/30 00:10:40;;;;;;;2.63;2.08;;;6.60;90.20;;;;;;5049438;28;20211;-78
2022/01/30 00:13:11;;;;;;;2.47;2.10;;;6.70;90.10;;;;;;5068044;28;20203;-79
2022/01/30 00:15:42;;;;;;;2.35;2.15;;;6.60;90.10;;;;;;5070793;28;20198;-77
2022/01/30 00:18:30;;;;;;;2.25;2.15;;;6.70;90.10;;;;;;5071007;28;20249;-79
2022/01/30 00:21:07;;;;;;;2.35;2.15;;;6.70;89.80;;;;;;5051338;28;20280;-80
2022/01/30 00:23:41;;;;;;;2.67;1.70;;;6.70;90.20;;;;;;5053551;28;20213;-79
2022/01/30 00:26:09;;;;;;;2.03;1.92;;;6.60;90.80;;;;;;5060975;28;20265;-78
2022/01/30 00:28:36;;;;;;;2.92;2.63;;;6.60;91.20;;;;;;5065485;28;20232;-78
2022/01/30 00:31:04;;;;;;;2.90;2.55;;;6.60;91.80;;;;;;5064949;28;20221;-77
2022/01/30 00:33:31;;;;;;;3.10;2.70;;;6.50;92.20;;;;;;5065779;28;20220;-78
2022/01/30 00:35:58;;;;;;;3.85;2.75;;;6.40;93.00;;;;;;5061731;28;20289;-78
2022/01/30 00:38:26;;;;;;;3.97;2.22;;;6.50;93.70;;;;;;5062895;28;20309;-78
2022/01/30 00:40:54;;;;;;;4.00;2.63;;;6.40;94.00;;;;;;5041007;28;20242;-78
2022/01/30 00:43:22;;;;;;;2.85;2.22;;;6.50;94.10;;;;;;5061569;28;20190;-78
2022/01/30 00:45:49;;;;;;;3.15;2.60;;;6.50;94.10;;;;;;5059548;28;20207;-78
2022/01/30 00:48:16;;;;;;;3.28;2.65;;;6.40;94.20;;;;;;5060985;28;20492;-79
2022/01/30 00:50:43;;;;;;;2.70;2.50;;;6.40;94.10;;;;;;5055798;28;20214;-78
2022/01/30 00:53:10;;;;;;;3.60;2.50;;;6.50;94.00;;;;;;5054591;28;20198;-77
2022/01/30 00:55:37;;;;;;;3.60;2.88;;;6.50;94.10;;;;;;5065852;28;20611;-77
2022/01/30 00:58:06;;;;;;;2.60;2.38;;;6.50;94.00;;;;;;5067458;28;20261;-77
2022/01/30 01:00:33;;;;;;;2.30;2.10;;;6.50;93.70;;;;;;5063778;28;20253;-75
2022/01/30 01:03:00;;;;;;;3.25;2.00;;;6.60;93.40;;;;;;5065531;28;20214;-76
2022/01/30 01:05:29;;;;;;;2.20;2.00;;;6.60;93.00;;;;;;5061964;28;20207;-75
2022/01/30 01:07:58;;;;;;;2.72;2.45;;;6.60;92.60;;;;;;5062600;28;20697;-76
2022/01/30 01:10:32;;;;;;;1.92;1.80;;;6.60;92.90;;;;;;5062583;28;20264;-76
2022/01/30 01:13:12;;;;;;;3.70;2.03;;;6.60;93.00;;;;;;5056831;28;20233;-75
2022/01/30 01:23:57;;;;;;;2.38;2.17;;;6.50;93.80;;;;;;5064750;28;20226;-76
2022/01/30 01:26:25;;;;;;;2.30;2.10;;;6.60;93.90;;;;;;5067594;28;20237;-77
2022/01/30 01:28:53;;;;;;;2.70;2.28;;;6.60;94.00;;;;;;5066788;28;20207;-76
2022/01/30 01:31:22;;;;;;;3.13;2.58;;;6.60;94.10;;;;;;5069153;28;20257;-77
2022/01/30 01:34:05;;;;;;;2.90;2.10;;;6.60;94.10;;;;;;5063164;28;20209;-78
2022/01/30 01:36:32;;;;;;;2.00;1.80;;;6.60;94.30;;;;;;5062697;28;20225;-78
2022/01/30 01:38:59;;;;;;;2.53;2.30;;;6.60;94.60;;;;;;5042887;28;20219;-77
2022/01/30 01:41:27;;;;;;;2.47;2.00;;;6.50;94.90;;;;;;5045377;28;20226;-77
2022/01/30 01:43:54;;;;;;;2.35;2.15;;;6.50;95.10;;;;;;5053052;28;20206;-78
2022/01/30 01:46:25;;;;;;;3.60;2.00;;;6.50;95.40;;;;;;5063078;28;20240;-78
2022/01/30 01:48:53;;;;;;;2.97;2.20;;;6.50;95.60;;;;;;5063994;28;20195;-77
2022/01/30 01:51:22;;;;;;;2.30;2.10;;;6.50;95.70;;;;;;5060841;28;20748;-78
2022/01/30 01:53:53;;;;;;;2.35;2.15;;;6.50;95.80;;;;;;5060731;28;20226;-78
2022/01/30 01:56:20;;;;;;;2.65;2.45;;;6.40;95.90;;;;;;5059555;28;20213;-79
2022/01/30 01:58:47;;;;;;;2.20;2.00;;;6.40;96.20;;;;;;5041370;28;20298;-77
2022/01/30 02:01:14;;;;;;;2.33;2.13;;;6.40;96.00;;;;;;5053504;28;20270;-78
2022/01/30 02:03:43;;;;;;;2.40;2.20;;;6.40;96.00;;;;;;5068164;28;20258;-77
2022/01/30 02:06:14;;;;;;;1.75;1.65;;;6.40;95.80;;;;;;5071208;28;20194;-78
2022/01/30 02:08:43;;;;;;;2.13;1.92;;;6.40;96.00;;;;;;5060229;28;20250;-78
2022/01/30 02:11:14;;;;;;;1.90;1.70;;;6.40;96.30;;;;;;5062565;28;20586;-79
2022/01/30 02:14:01;;;;;;;2.15;2.00;;;6.40;95.70;;;;;;5057881;28;20209;-78
2022/01/30 02:25:00;;;;;;;2.00;1.80;;;6.30;97.50;;;;;;5059124;28;20201;-76
2022/01/30 02:27:33;;;;;;;2.30;1.98;;;6.30;98.60;;;;;;5059573;28;20229;-77
2022/01/30 02:30:00;;;;;;;1.90;1.80;;;6.30;99.20;;;;;;5060165;28;20199;-79
2022/01/30 02:32:28;;;;;;;2.08;1.83;;;6.30;99.90;;;;;;5066879;28;20245;-77
2022/01/30 02:34:55;;;;;;;2.30;2.10;;;6.30;99.90;;;;;;5061274;28;20213;-78
2022/01/30 02:37:21;;;;;;;1.80;1.70;;;6.30;99.90;;;;;;5057940;28;20229;-75
2022/01/30 02:39:50;;;;;;;2.28;2.10;;;6.40;99.90;;;;;;5059001;28;20249;-78
2022/01/30 02:42:21;;;;;;;1.65;1.52;;;6.40;99.90;;;;;;5058144;28;20234;-77
2022/01/30 02:44:52;;;;;;;2.17;1.70;;;6.40;99.90;;;;;;5060959;28;20217;-79
2022/01/30 02:47:36;;;;;;;1.48;1.38;;;6.40;99.90;;;;;;5057504;28;20207;-78
2022/01/30 02:50:12;;;;;;;1.88;1.77;;;6.40;99.90;;;;;;5060280;28;20346;-78
2022/01/30 02:52:43;;;;;;;1.77;1.67;;;6.30;99.70;;;;;;5057610;28;20282;-78
2022/01/30 02:55:13;;;;;;;2.10;1.95;;;6.30;99.70;;;;;;5056091;28;20221;-78
2022/01/30 02:57:40;;;;;;;1.50;1.40;;;6.40;99.60;;;;;;5058742;28;20650;-78
2022/01/30 03:00:09;;;;;;;2.13;1.98;;;6.40;99.30;;;;;;5053820;28;20237;-78
2022/01/30 03:02:36;;;;;;;2.50;1.95;;;6.40;99.20;;;;;;5036950;28;20273;-78
2022/01/30 03:05:04;;;;;;;1.95;1.80;;;6.50;99.00;;;;;;5043149;28;20278;-77
2022/01/30 03:07:31;;;;;;;2.17;1.98;;;6.40;98.60;;;;;;5056606;28;20666;-77
2022/01/30 03:09:57;;;;;;;1.65;1.50;;;6.50;98.30;;;;;;5056504;28;20727;-78
2022/01/30 03:12:26;;;;;;;2.40;1.85;;;6.40;98.10;;;;;;5038696;28;20234;-77
2022/01/30 03:14:53;;;;;;;2.30;2.10;;;6.40;98.20;;;;;;5041721;28;20285;-77
2022/01/30 03:17:20;;;;;;;2.08;1.70;;;6.40;98.20;;;;;;5056298;28;20213;-78
2022/01/30 03:19:46;;;;;;;1.33;1.23;;;6.40;98.60;;;;;;5045548;28;20596;-78
2022/01/30 03:22:13;;;;;;;2.25;1.67;;;6.40;98.20;;;;;;5055984;28;20225;-78
2022/01/30 03:24:40;;;;;;;2.10;1.90;;;6.40;98.20;;;;;;5056237;28;20237;-78
2022/01/30 03:27:11;;;;;;;1.60;1.50;;;6.40;98.40;;;;;;5055854;28;20226;-78
2022/01/30 03:29:40;;;;;;;2.30;2.10;;;6.30;98.10;;;;;;5056449;28;20705;-77
2022/01/30 03:32:08;;;;;;;1.73;1.63;;;6.30;98.30;;;;;;5056157;28;20242;-78
2022/01/30 03:34:35;;;;;;;1.90;1.80;;;6.30;98.50;;;;;;5053518;28;20260;-77
2022/01/30 03:37:01;;;;;;;2.33;2.13;;;6.20;98.60;;;;;;5044239;28;20722;-78
2022/01/30 03:39:28;;;;;;;2.00;1.80;;;6.20;99.10;;;;;;5061099;28;20214;-77
2022/01/30 03:41:55;;;;;;;2.78;1.80;;;6.10;99.50;;;;;;5047221;28;20396;-77
2022/01/30 03:44:22;;;;;;;1.75;1.52;;;6.10;99.90;;;;;;5057245;28;20194;-77
2022/01/30 03:46:50;;;;;;;2.20;2.00;;;6.10;99.90;;;;;;5046256;28;20245;-77
2022/01/30 03:49:17;;;;;;;2.35;2.13;;;6.10;99.90;;;;;;5060513;28;20615;-77
2022/01/30 03:51:44;;;;;;;2.60;1.42;;;6.10;99.90;;;;;;5050164;28;20297;-77
2022/01/30 03:54:11;;;;;;;2.53;2.08;;;6.10;99.90;;;;;;5060675;28;20205;-78
2022/01/30 03:56:38;;;;;;;2.65;2.05;;;6.10;99.90;;;;;;5045345;28;20230;-78
2022/01/30 03:59:04;;;;;;;1.90;1.70;;;6.10;99.90;;;;;;5065679;28;20253;-77
2022/01/30 04:01:31;;;;;;;2.08;1.75;;;6.10;99.90;;;;;;5061262;28;20232;-77
2022/01/30 04:03:59;;;;;;;2.25;2.05;;;6.20;99.90;;;;;;5069738;28;20198;-77
2022/01/30 04:06:27;;;;;;;2.20;2.00;;;6.10;99.90;;;;;;5068765;28;20230;-77
2022/01/30 04:08:54;;;;;;;4.63;1.80;;;6.10;99.90;;;;;;5065291;28;20195;-77
2022/01/30 04:11:22;;;;;;;1.95;1.83;;;6.10;99.90;;;;;;5071298;28;20230;-76
2022/01/30 04:13:49;;;;;;;2.38;2.00;;;6.00;99.90;;;;;;5066620;28;20210;-77
2022/01/30 04:16:17;;;;;;;2.20;2.00;;;6.00;99.90;;;;;;5062888;28;20206;-77
2022/01/30 04:18:44;;;;;;;2.35;1.98;;;6.00;99.90;;;;;;5062524;28;20213;-76
2022/01/30 04:21:12;;;;;;;2.03;1.83;;;6.00;99.90;;;;;;5054650;28;20228;-78
2022/01/30 04:23:40;;;;;;;2.38;2.17;;;6.00;99.90;;;;;;5074656;28;20322;-77
2022/01/30 04:26:07;;;;;;;2.85;2.60;;;6.00;99.90;;;;;;5068092;28;20206;-77
2022/01/30 04:28:35;;;;;;;2.67;1.90;;;5.90;99.90;;;;;;5064147;28;20210;-77
2022/01/30 04:31:02;;;;;;;2.85;2.30;;;6.00;99.90;;;;;;5063971;28;20229;-76
2022/01/30 04:33:29;;;;;;;3.95;2.65;;;6.00;99.90;;;;;;5061030;28;20211;-77
2022/01/30 04:36:00;;;;;;;3.10;2.80;;;5.90;99.90;;;;;;5045555;28;20282;-77
2022/01/30 04:38:36;;;;;;;2.63;2.42;;;5.90;99.90;;;;;;5060776;28;20204;-78
2022/01/30 04:41:26;;;;;;;2.88;2.58;;;5.90;99.90;;;;;;5056907;28;20317;-77
2022/01/30 04:57:58;;;;;;;2.90;2.70;;;5.70;99.90;;;;;;5059670;28;20273;-77
2022/01/30 05:00:37;;;;;;;2.85;2.10;;;5.70;99.90;;;;;;5060120;28;20268;-77
2022/01/30 05:03:24;;;;;;;3.35;3.05;;;5.70;99.90;;;;;;5059853;28;20210;-77
2022/01/30 05:05:59;;;;;;;2.90;2.30;;;5.70;99.90;;;;;;5058455;28;20209;-76
2022/01/30 05:08:27;;;;;;;3.45;2.30;;;5.60;99.90;;;;;;5059399;28;20674;-77
2022/01/30 05:10:55;;;;;;;2.55;2.30;;;5.60;99.90;;;;;;5045472;28;20223;-76
2022/01/30 05:13:26;;;;;;;3.17;2.75;;;5.50;99.90;;;;;;5056273;28;20206;-77
2022/01/30 05:15:53;;;;;;;3.28;2.80;;;5.50;99.90;;;;;;5054052;28;20225;-77
2022/01/30 05:18:22;;;;;;;3.72;2.95;;;5.40;99.90;;;;;;5040673;28;20203;-77
2022/01/30 05:20:49;;;;;;;3.00;2.50;;;5.40;99.90;;;;;;5043127;28;20261;-77
2022/01/30 05:23:17;;;;;;;2.78;2.15;;;5.40;99.90;;;;;;5054096;28;20301;-77
2022/01/30 05:25:45;;;;;;;3.10;2.80;;;5.30;99.90;;;;;;5050287;28;20215;-78
2022/01/30 05:28:14;;;;;;;3.15;2.72;;;5.30;99.90;;;;;;5045997;28;20266;-77
2022/01/30 05:30:41;;;;;;;3.33;3.03;;;5.30;99.90;;;;;;5045785;28;20246;-78
2022/01/30 05:33:08;;;;;;;3.30;2.85;;;5.20;99.90;;;;;;5037991;28;20234;-78
2022/01/30 05:35:36;;;;;;;3.25;2.95;;;5.20;99.90;;;;;;5056555;28;20206;-77
2022/01/30 05:38:04;;;;;;;5.45;3.50;;;5.20;99.90;;;;;;5058501;28;20533;-77
2022/01/30 05:40:31;;;;;;;3.47;2.80;;;5.20;99.90;;;;;;5049009;28;20215;-77
2022/01/30 05:42:59;;;;;;;5.13;3.10;;;5.20;99.90;;;;;;5055749;28;20262;-77
2022/01/30 05:45:32;;;;;;;4.30;3.03;;;5.20;99.90;;;;;;5063650;28;20210;-78
2022/01/30 05:48:03;;;;;;;3.10;2.80;;;5.20;99.90;;;;;;5055330;28;20202;-77
2022/01/30 05:50:30;;;;;;;4.07;3.40;;;5.20;99.90;;;;;;5074482;28;20182;-77
2022/01/30 05:52:57;;;;;;;3.95;3.42;;;5.30;99.90;;;;;;5067982;28;20237;-77
2022/01/30 05:55:24;;;;;;;4.55;3.72;;;5.30;99.90;;;;;;5058213;28;20599;-76
2022/01/30 05:57:51;;;;;;;5.30;4.30;;;5.30;99.90;;;;;;5059358;28;20249;-80
2022/01/30 06:00:18;;;;;;;4.50;3.15;;;5.40;99.90;;;;;;5057581;28;20229;-77
2022/01/30 06:02:47;;;;;;;3.63;3.15;;;5.40;99.90;;;;;;5058779;28;20279;-76
2022/01/30 06:05:16;;;;;;;4.70;3.72;;;5.40;99.90;;;;;;5058334;28;20209;-76
2022/01/30 06:07:49;;;;;;;6.80;3.85;;;5.40;99.90;;;;;;5041736;28;20194;-76
2022/01/30 06:10:16;;;;;;;4.68;4.13;;;5.40;99.90;;;;;;5058235;28;20194;-76
2022/01/30 06:12:43;;;;;;;4.75;4.07;;;5.40;99.90;;;;;;5046094;28;20203;-76
2022/01/30 06:15:10;;;;;;;4.60;4.10;;;5.40;99.90;;;;;;5038028;28;20579;-75
2022/01/30 06:17:37;;;;;;;4.40;4.00;;;5.30;99.90;;;;;;5041769;28;20293;-77
2022/01/30 06:20:07;;;;;;;7.55;4.32;;;5.30;99.90;;;;;;5059497;28;20249;-78
2022/01/30 06:22:34;;;;;;;5.28;4.78;;;5.40;99.90;;;;;;5060412;28;20219;-77
2022/01/30 06:25:02;;;;;;;5.07;4.43;;;5.40;99.90;;;;;;5058236;28;20213;-76
2022/01/30 06:27:28;;;;;;;4.82;4.32;;;5.40;99.90;;;;;;5058239;28;20202;-77
2022/01/30 06:29:55;;;;;;;6.30;4.30;;;5.40;99.90;;;;;;5070183;28;20286;-78
2022/01/30 06:32:22;;;;;;;5.22;3.92;;;5.40;99.90;;;;;;5065031;28;20218;-78
2022/01/30 06:34:49;;;;;;;5.60;4.55;;;5.40;99.90;;;;;;5061801;28;20226;-78
2022/01/30 06:37:17;;;;;;;5.55;4.95;;;5.40;99.90;;;;;;5062382;28;20309;-77
2022/01/30 06:39:44;;;;;;;4.68;4.22;;;5.40;99.90;;;;;;5042938;28;20611;-76
2022/01/30 06:42:11;;;;;;;5.38;3.42;;;5.40;99.90;;;;;;5059756;28;20226;-77
2022/01/30 06:44:38;;;;;;;4.50;3.47;;;5.30;99.90;;;;;;5062105;28;20233;-77
2022/01/30 06:47:06;;;;;;;4.65;4.13;;;5.30;99.90;;;;;;5068348;28;20233;-74
2022/01/30 06:49:33;;;;;;;3.90;3.50;;;5.20;99.90;;;;;;5072945;28;20224;-75
2022/01/30 06:52:00;;;;;;;5.25;3.75;;;5.20;99.90;;;;;;5057913;28;20206;-77
2022/01/30 06:54:28;;;;;;;3.75;3.42;;;5.10;99.90;;;;;;5075690;28;20236;-77
2022/01/30 06:56:55;;;;;;;6.13;4.07;;;5.10;99.90;;;;;;5068642;28;20210;-78
2022/01/30 06:59:22;;;;;;;4.65;4.25;;;5.10;99.90;;;;;;5061766;28;20207;-78
2022/01/30 07:01:52;;;;;;;6.57;4.15;;;5.00;99.90;;;;;;5059400;28;20232;-77
2022/01/30 07:04:19;;;;;;;3.42;3.10;;;4.90;99.90;;;;;;5056259;28;20201;-77
2022/01/30 07:06:46;;;;;;;5.85;4.43;;;5.00;99.90;;;;;;5056262;28;20212;-77
2022/01/30 07:09:13;;;;;;;4.90;4.15;;;5.00;99.90;;;;;;5062682;28;20206;-79
2022/01/30 07:11:41;;;;;;;4.03;3.65;;;4.90;99.90;;;;;;5055911;28;20245;-77
2022/01/30 07:14:08;;;;;;;4.90;4.40;;;5.00;99.90;;;;;;5056725;28;20339;-77
2022/01/30 07:16:35;;;;;;;6.72;4.45;;;5.00;99.90;;;;;;5045764;28;20264;-77
2022/01/30 07:19:02;;;;;;;5.80;4.47;;;4.90;99.90;;;;;;5037077;28;20214;-77
2022/01/30 07:21:28;;;;;;;9.05;4.18;;;4.90;99.90;;;;;;5040106;28;20338;-77
2022/01/30 07:23:55;;;;;;;5.25;3.80;;;5.00;99.90;;;;;;5057000;28;20289;-76
2022/01/30 07:26:22;;;;;;;4.00;3.60;;;4.90;99.90;;;;;;5057382;28;20203;-76
2022/01/30 07:28:50;;;;;;;4.00;3.55;;;4.90;99.90;;;;;;5057871;28;20213;-77
2022/01/30 07:31:17;;;;;;;8.07;4.18;;;4.80;99.90;;;;;;5059136;28;20226;-78
2022/01/30 07:33:44;;;;;;;4.57;3.55;;;4.80;99.90;;;;;;5056379;28;20206;-77
2022/01/30 07:36:11;;;;;;;9.15;3.58;;;4.80;99.90;;;;;;5056620;28;20297;-78
2022/01/30 07:38:38;;;;;;;4.20;3.80;;;4.80;99.90;;;;;;5044939;28;20235;-77
2022/01/30 07:41:05;;;;;;;6.45;4.10;;;4.80;99.90;;;;;;5036171;28;20305;-77
2022/01/30 07:43:32;;;;;;;6.28;3.40;;;4.80;99.90;;;;;;5055887;28;20253;-78
2022/01/30 07:46:03;;;;;;;5.47;4.18;;;4.80;99.90;;;;;;5050550;28;20670;-77
2022/01/30 07:48:29;;;;;;;7.38;3.70;;;4.80;99.90;;;;;;5048379;28;20565;-76
2022/01/30 07:50:56;;;;;;;5.15;3.80;;;4.80;99.90;;;;;;5043516;28;20664;-77
2022/01/30 07:53:23;;;;;;;6.30;4.38;;;4.80;99.90;;;;;;5054634;28;20210;-76
2022/01/30 07:55:50;;;;;;;7.40;3.75;;;4.80;99.90;;;;;;5056576;28;20260;-77
2022/01/30 07:58:17;;;;;;;7.90;4.15;;;4.90;99.90;;;;;;5057869;28;20221;-77
2022/01/30 08:00:44;;;;;;;3.80;3.40;;;4.90;99.90;;;;;;5044452;28;20230;-77
2022/01/30 08:03:12;;;;;;;4.05;3.28;;;5.00;99.90;;;;;;5039598;28;20207;-77
2022/01/30 08:05:39;;;;;;;12.85;4.15;;;5.10;99.90;;;;;;5054049;28;20605;-76
2022/01/30 08:08:07;;;;;;;5.00;4.10;;;5.20;99.90;;;;;;5057321;28;20199;-77
2022/01/30 08:10:34;;;;;;;6.38;4.28;;;5.30;99.90;;;;;;5063093;28;20218;-77
2022/01/30 08:13:01;;;;;;;6.82;3.78;;;5.30;99.90;;;;;;5068342;28;20207;-76
2022/01/30 08:15:28;;;;;;;6.35;4.25;;;5.40;99.90;;;;;;5063782;28;20203;-77
2022/01/30 08:17:55;;;;;;;5.55;3.78;;;5.50;99.90;;;;;;5057877;28;20207;-77
2022/01/30 08:20:26;;;;;;;5.85;3.85;;;5.60;99.90;;;;;;5061640;28;20690;-77
2022/01/30 08:22:54;;;;;;;7.63;4.60;;;5.60;99.90;;;;;;5057792;28;20228;-76
2022/01/30 08:25:23;;;;;;;3.80;3.38;;;5.70;99.90;;;;;;5059729;28;20267;-77
2022/01/30 08:27:51;;;;;;;4.80;3.88;;;5.80;99.90;;;;;;5061409;28;20369;-76
2022/01/30 08:30:17;;;;;;;3.90;3.40;;;5.90;99.90;;;;;;5059083;28;20202;-77
2022/01/30 08:32:46;;;;;;;5.88;3.90;;;6.00;99.90;;;;;;5059409;28;20207;-77
2022/01/30 08:35:14;;;;;;;4.13;3.30;;;6.00;99.90;;;;;;5060382;28;20301;-77
2022/01/30 08:37:43;;;;;;;3.80;3.00;;;6.00;99.90;;;;;;5062243;28;20286;-77
2022/01/30 08:40:12;;;;;;;5.50;3.97;;;6.00;99.90;;;;;;5054657;28;20199;-77
2022/01/30 08:42:39;;;;;;;5.80;4.28;;;6.10;99.90;;;;;;5052876;28;20245;-77
2022/01/30 08:45:08;;;;;;;6.70;3.20;;;6.20;99.90;;;;;;5062247;28;20221;-77
2022/01/30 08:47:35;;;;;;;5.70;3.45;;;6.40;99.90;;;;;;5045294;28;20206;-77
2022/01/30 08:50:03;;;;;;;7.90;3.70;;;6.40;99.90;;;;;;5067899;28;20209;-79
2022/01/30 08:52:30;;;;;;;6.05;3.85;;;6.50;99.90;;;;;;5074478;28;20257;-78
2022/01/30 08:54:58;;;;;;;7.45;3.47;;;6.40;99.90;;;;;;5063558;28;20213;-78
2022/01/30 08:57:25;;;;;;;10.15;4.00;;;6.40;98.60;;;;;;5063885;28;20199;-77
2022/01/30 08:59:53;;;;;;;7.30;4.68;;;6.50;97.50;;;;;;5064145;28;20242;-78
2022/01/30 09:02:20;;;;;;;9.35;4.18;;;6.50;96.20;;;;;;5063622;28;20238;-77
2022/01/30 09:04:47;;;;;;;7.13;4.25;;;6.50;95.40;;;;;;5063657;28;20291;-78
2022/01/30 09:07:14;;;;;;;10.30;4.05;;;6.50;94.90;;;;;;5058265;28;20293;-78
2022/01/30 09:09:41;;;;;;;12.02;4.53;;;6.40;94.00;;;;;;5063968;28;20202;-76
2022/01/30 09:12:10;;;;;;;7.80;4.25;;;6.30;93.90;;;;;;5074040;28;20246;-78
2022/01/30 09:14:39;;;;;;;8.13;4.65;;;6.30;93.80;;;;;;5072301;28;20190;-78
2022/01/30 09:17:12;;;;;;;8.95;4.57;;;6.40;93.80;;;;;;5074002;28;20210;-78
2022/01/30 09:19:40;;;;;;;7.05;4.20;;;6.50;93.20;;;;;;5068838;28;20210;-77
2022/01/30 09:22:08;;;;;;;11.15;4.35;;;6.40;92.20;;;;;;5064336;28;20226;-78
2022/01/30 09:24:35;;;;;;;8.88;3.90;;;6.50;92.10;;;;;;5053448;28;20206;-77
2022/01/30 09:27:02;;;;;;;12.13;4.30;;;6.50;90.00;;;;;;5061668;28;20663;-77
2022/01/30 09:29:30;;;;;;;17.35;4.05;;;6.60;86.90;;;;;;5062166;28;20685;-78
2022/01/30 09:31:58;;;;;;;18.20;4.20;;;6.70;80.60;;;;;;5063586;28;20215;-77
2022/01/30 09:34:25;;;;;;;9.80;3.58;;;6.90;79.60;;;;;;5070179;28;20207;-76
2022/01/30 09:36:52;;;;;;;9.10;4.35;;;7.00;74.00;;;;;;5065045;28;20210;-76
2022/01/30 09:39:19;;;;;;;11.40;2.95;;;7.10;66.10;;;;;;5065378;28;20245;-77
2022/01/30 09:41:48;;;;;;;9.77;3.85;;;7.30;62.70;;;;;;5069064;28;20250;-78
2022/01/30 09:44:16;;;;;;;7.25;2.70;;;7.50;61.00;;;;;;5067450;28;20294;-77
2022/01/30 09:46:45;;;;;;;10.95;3.40;;;7.60;58.90;;;;;;5055486;28;20213;-77
2022/01/30 09:49:13;;;;;;;13.10;3.78;;;7.60;58.40;;;;;;5040677;28;20294;-78
2022/01/30 09:51:42;;;;;;;6.15;3.45;;;7.70;59.80;;;;;;5046401;28;20215;-77
2022/01/30 09:54:11;;;;;;;19.90;4.30;;;8.00;60.20;;;;;;5060765;28;20311;-76
2022/01/30 09:56:38;;;;;;;10.02;4.25;;;8.10;60.20;;;;;;5070433;28;20197;-78
2022/01/30 09:59:05;;;;;;;11.05;3.85;;;8.00;58.80;;;;;;5078621;28;20195;-78
2022/01/30 10:01:34;;;;;;;13.52;4.38;;;7.90;58.90;;;;;;5060818;28;20623;-78
2022/01/30 10:04:04;;;;;;;9.48;3.03;;;7.70;58.90;;;;;;5060675;28;20274;-79
2022/01/30 10:06:35;;;;;;;9.63;3.13;;;7.60;57.60;;;;;;5066719;28;20253;-79
2022/01/30 10:09:11;;;;;;;11.52;3.45;;;7.50;57.30;;;;;;5066045;28;20207;-78
2022/01/30 10:11:49;;;;;;;13.82;4.57;;;7.40;57.40;;;;;;5062386;28;20759;-79
2022/01/30 10:14:16;;;;;;;17.38;4.57;;;7.40;57.40;;;;;;5060985;28;20259;-78
2022/01/30 10:16:45;;;;;;;11.63;4.30;;;7.50;57.50;;;;;;5058419;28;20724;-79
2022/01/30 10:19:17;;;;;;;14.32;3.65;;;7.50;57.50;;;;;;5058284;28;20246;-79
2022/01/30 10:21:45;;;;;;;11.10;3.80;;;7.60;57.60;;;;;;5056888;28;20689;-79
2022/01/30 10:24:25;;;;;;;9.88;3.05;;;7.80;57.30;;;;;;5057598;28;20278;-78
2022/01/30 10:26:55;;;;;;;11.55;3.28;;;7.90;53.90;;;;;;5058010;28;20233;-78
2022/01/30 10:29:23;;;;;;;9.80;2.88;;;8.00;54.20;;;;;;5059332;28;20207;-77
2022/01/30 10:32:01;;;;;;;12.45;3.65;;;8.20;54.30;;;;;;5059163;28;20230;-79
2022/01/30 10:34:30;;;;;;;7.90;2.60;;;8.40;51.30;;;;;;5053374;28;20217;-77
2022/01/30 10:37:13;;;;;;;11.30;2.83;;;8.40;47.70;;;;;;5042031;28;20308;-78
2022/01/30 10:39:57;;;;;;;11.75;2.58;;;8.60;47.20;;;;;;5049840;28;20213;-78
2022/01/30 10:42:38;;;;;;;10.23;2.00;;;8.50;44.70;;;;;;5056485;28;20222;-77
2022/01/30 10:45:07;;;;;;;8.25;2.00;;;8.50;44.80;;;;;;5054923;28;20281;-77
2022/01/30 10:47:36;;;;;;;10.35;2.10;;;8.40;41.90;;;;;;5080194;28;20202;-76
2022/01/30 10:50:09;;;;;;;4.57;2.13;;;8.40;41.10;;;;;;5075475;28;20213;-76
2022/01/30 10:52:48;;;;;;;7.93;2.20;;;8.60;41.60;;;;;;5074483;28;20317;-74
2022/01/30 10:55:15;;;;;;;12.82;3.00;;;8.70;42.10;;;;;;5055955;28;20649;-78
2022/01/30 10:57:46;;;;;;;5.63;1.90;;;9.00;42.20;;;;;;5062587;28;20289;-76
2022/01/30 11:00:13;;;;;;;10.00;2.50;;;9.00;41.60;;;;;;5061417;28;20198;-75
2022/01/30 11:02:40;;;;;;;7.03;2.22;;;8.60;41.80;;;;;;5060912;28;20248;-76
2022/01/30 11:05:13;;;;;;;9.90;3.10;;;8.20;42.80;;;;;;5057121;28;20233;-78
2022/01/30 11:07:40;;;;;;;8.93;2.50;;;8.20;43.30;;;;;;5056258;28;20221;-77
2022/01/30 11:10:12;;;;;;;8.27;2.75;;;8.10;41.90;;;;;;5053637;28;20207;-78
2022/01/30 11:12:46;;;;;;;7.30;1.65;;;7.90;39.10;;;;;;5053524;28;20203;-77
2022/01/30 11:15:20;;;;;;;6.65;2.10;;;7.80;39.10;;;;;;5062185;28;20198;-77
2022/01/30 11:17:48;;;;;;;7.70;2.00;;;7.80;38.90;;;;;;5055099;28;20268;-76
2022/01/30 11:20:18;;;;;;;6.72;2.00;;;8.00;39.50;;;;;;5064506;28;20521;-77
2022/01/30 11:22:48;;;;;;;4.22;1.77;;;8.30;39.00;;;;;;5062377;28;20218;-77
2022/01/30 11:25:17;;;;;;;8.27;1.95;;;8.60;39.30;;;;;;5065859;28;20206;-77
2022/01/30 11:27:47;;;;;;;3.38;2.05;;;8.70;39.40;;;;;;5065930;28;20237;-78
2022/01/30 11:30:16;;;;;;;8.27;2.28;;;8.70;39.40;;;;;;5066604;28;20202;-76
2022/01/30 11:32:44;;;;;;;6.28;2.47;;;8.70;39.40;;;;;;5067646;28;20262;-76
2022/01/30 11:35:11;;;;;;;8.30;1.73;;;8.90;39.50;;;;;;5073913;28;20274;-77
2022/01/30 11:37:40;;;;;;;8.43;2.70;;;8.80;39.40;;;;;;5072165;28;20179;-77
2022/01/30 11:40:15;;;;;;;6.30;2.30;;;8.60;39.30;;;;;;5074496;28;20186;-76
2022/01/30 11:42:45;;;;;;;6.03;2.22;;;8.60;39.30;;;;;;5070907;28;20662;-77
2022/01/30 11:45:15;;;;;;;7.13;2.67;;;8.60;39.30;;;;;;5070346;28;20209;-76
2022/01/30 11:47:51;;;;;;;9.20;2.20;;;8.50;39.20;;;;;;5060679;28;20218;-77
2022/01/30 11:50:19;;;;;;;7.13;1.88;;;8.40;39.10;;;;;;5068388;28;20228;-78
2022/01/30 11:52:59;;;;;;;6.53;2.20;;;8.50;39.20;;;;;;5063879;28;20206;-78
2022/01/30 11:55:57;;;;;;;4.75;2.53;;;8.50;39.20;;;;;;5071559;28;20198;-79
2022/01/30 11:58:49;;;;;;;7.38;2.78;;;8.60;39.30;;;;;;5044917;28;20673;-77
2022/01/30 12:01:37;;;;;;;7.43;2.10;;;8.60;39.30;;;;;;5051908;28;20218;-77
2022/01/30 12:04:12;;;;;;;5.63;2.22;;;8.60;37.90;;;;;;5061416;28;20210;-77
2022/01/30 12:06:42;;;;;;;9.05;2.67;;;8.50;38.60;;;;;;5062216;28;20202;-77
2022/01/30 12:09:29;;;;;;;4.93;1.95;;;8.40;39.80;;;;;;5065040;28;20385;-76
2022/01/30 12:12:07;;;;;;;7.20;2.33;;;8.40;39.10;;;;;;5065141;28;20265;-78
2022/01/30 12:14:59;;;;;;;10.40;1.98;;;8.30;39.00;;;;;;5071501;28;20206;-78
2022/01/30 12:17:59;;;;;;;7.53;2.10;;;8.30;39.00;;;;;;5065075;28;21760;-76
2022/01/30 12:20:28;;;;;;;7.82;2.10;;;8.20;38.90;;;;;;5063168;28;20230;-75
2022/01/30 12:22:57;;;;;;;11.27;2.97;;;8.30;39.00;;;;;;5059525;28;20230;-77
2022/01/30 12:25:31;;;;;;;4.53;1.90;;;8.20;38.90;;;;;;5063344;28;20646;-75
2022/01/30 12:28:01;;;;;;;7.63;2.17;;;8.20;38.90;;;;;;5038350;28;20659;-77
2022/01/30 12:30:47;;;;;;;11.63;2.10;;;8.30;39.00;;;;;;5043465;28;20280;-80
2022/01/30 12:33:35;;;;;;;9.85;1.90;;;8.30;39.00;;;;;;5064400;28;20226;-77
2022/01/30 12:36:03;;;;;;;4.88;1.88;;;8.30;39.00;;;;;;5066636;28;20211;-75
2022/01/30 12:38:31;;;;;;;6.32;3.08;;;8.20;38.90;;;;;;5067211;28;20201;-77
2022/01/30 12:40:59;;;;;;;5.47;2.60;;;8.10;38.80;;;;;;5063386;28;20230;-75
2022/01/30 12:43:29;;;;;;;6.70;2.47;;;8.00;39.90;;;;;;5062252;28;20232;-75
2022/01/30 12:46:05;;;;;;;6.47;2.25;;;8.00;40.40;;;;;;5074896;28;20207;-76
2022/01/30 12:48:32;;;;;;;5.28;2.47;;;8.00;40.80;;;;;;5062062;28;20245;-76
2022/01/30 12:51:04;;;;;;;9.35;2.40;;;8.00;41.30;;;;;;5055231;28;20776;-76
2022/01/30 12:53:33;;;;;;;6.43;1.90;;;8.00;41.30;;;;;;5055569;28;20225;-75
2022/01/30 12:56:01;;;;;;;10.07;2.00;;;8.00;40.80;;;;;;5067989;28;20214;-75
2022/01/30 12:58:34;;;;;;;9.13;2.35;;;7.90;40.50;;;;;;5072975;28;20206;-76
2022/01/30 13:01:09;;;;;;;6.85;2.22;;;7.90;40.40;;;;;;5073508;28;20245;-75
2022/01/30 13:03:36;;;;;;;13.82;2.83;;;7.90;39.70;;;;;;5070349;28;20654;-77
2022/01/30 13:06:03;;;;;;;7.75;2.10;;;7.80;40.00;;;;;;5062199;28;20214;-75
2022/01/30 13:08:47;;;;;;;3.65;2.17;;;7.90;41.20;;;;;;5045827;28;20197;-77
2022/01/30 13:11:20;;;;;;;5.80;2.25;;;8.20;39.90;;;;;;5059012;28;20317;-77
2022/01/30 13:13:55;;;;;;;8.07;2.42;;;8.50;39.20;;;;;;5059597;28;20301;-76
2022/01/30 13:16:23;;;;;;;7.60;2.45;;;8.90;39.00;;;;;;5060769;28;20213;-77
2022/01/30 13:18:50;;;;;;;7.55;2.03;;;9.20;37.10;;;;;;5060475;28;20604;-77
2022/01/30 13:21:22;;;;;;;6.63;3.00;;;9.30;36.40;;;;;;5059138;28;20226;-77
2022/01/30 13:23:49;;;;;;;6.93;2.33;;;9.30;36.60;;;;;;5059571;28;20222;-76
2022/01/30 13:26:30;;;;;;;3.63;2.10;;;9.50;36.00;;;;;;5059574;28;20216;-77
2022/01/30 13:28:57;;;;;;;5.20;2.13;;;9.60;36.50;;;;;;5058253;28;20616;-77
2022/01/30 13:31:25;;;;;;;3.08;1.42;;;9.60;36.40;;;;;;5057889;28;20257;-77
2022/01/30 13:34:25;;;;;;;6.55;2.67;;;9.50;35.30;;;;;;5059723;28;20322;-77
2022/01/30 13:36:58;;;;;;;7.80;2.38;;;9.30;36.00;;;;;;5060342;28;20289;-77
2022/01/30 13:39:30;;;;;;;5.93;1.77;;;9.20;35.80;;;;;;5061318;28;20254;-78